Time;durP1;ratioP1;P1;durP2;ratioP2;P2;SDS_P1;SDS_P2;PMS_P1;PMS_P2;Temp;Humidity;BMP_temperature;BMP_pressure;BME280_temperature;BME280_humidity;BME280_pressure;Samples;Min_cycle;Max_cycle;Signal;HPM_P1;HPM_P2
2023/06/14 00:01:02;;;;;;;4.25;2.80;;;;;;;;;;5022325;28;20049;-74
2023/06/14 00:03:28;;;;;;;6.35;3.25;;;;;;;;;;5038248;28;20061;-73
2023/06/14 00:05:54;;;;;;;8.95;2.95;;;;;;;;;;5022952;28;20234;-74
2023/06/14 00:08:21;;;;;;;4.50;3.03;;;;;;;;;;5038683;28;20554;-75
2023/06/14 00:10:46;;;;;;;6.03;3.33;;;;;;;;;;5023101;28;20570;-72
2023/06/14 00:13:12;;;;;;;7.10;3.22;;;;;;;;;;5021326;28;20127;-75
2023/06/14 00:15:37;;;;;;;7.43;3.00;;;;;;;;;;5021356;28;20036;-73
2023/06/14 00:18:04;;;;;;;4.40;3.00;;;;;;;;;;5023130;28;20065;-75
2023/06/14 00:20:32;;;;;;;7.95;2.80;;;;;;;;;;5023262;28;20049;-76
2023/06/14 00:23:01;;;;;;;3.50;2.67;;;;;;;;;;5022001;28;20550;-73
2023/06/14 00:25:27;;;;;;;3.70;2.65;;;;;;;;;;5023671;28;20049;-73
2023/06/14 00:27:53;;;;;;;7.60;2.60;;;;;;;;;;5022809;28;20056;-71
2023/06/14 00:30:19;;;;;;;4.05;2.60;;;;;;;;;;5017414;28;20037;-73
2023/06/14 00:32:45;;;;;;;3.45;2.47;;;;;;;;;;5022189;28;20057;-72
2023/06/14 00:35:11;;;;;;;2.90;2.60;;;;;;;;;;5024092;28;20090;-76
2023/06/14 00:37:37;;;;;;;4.35;2.50;;;;;;;;;;5022855;28;20045;-75
2023/06/14 00:40:04;;;;;;;4.95;2.53;;;;;;;;;;5014249;28;20038;-74
2023/06/14 00:42:30;;;;;;;3.03;2.45;;;;;;;;;;5023734;28;20048;-74
2023/06/14 00:44:56;;;;;;;6.13;2.67;;;;;;;;;;5014576;28;20049;-76
2023/06/14 00:47:22;;;;;;;3.60;2.70;;;;;;;;;;5022690;28;20045;-72
2023/06/14 00:49:53;;;;;;;7.55;2.80;;;;;;;;;;5022352;28;20045;-74
2023/06/14 00:52:19;;;;;;;2.88;2.58;;;;;;;;;;5024081;28;20435;-73
2023/06/14 00:54:45;;;;;;;7.65;2.67;;;;;;;;;;5024331;28;20132;-73
2023/06/14 00:57:11;;;;;;;4.40;3.00;;;;;;;;;;5022856;28;21087;-75
2023/06/14 00:59:42;;;;;;;6.60;2.80;;;;;;;;;;5022128;28;20037;-74
2023/06/14 01:02:08;;;;;;;4.28;2.67;;;;;;;;;;5013321;28;20483;-72
2023/06/14 01:04:37;;;;;;;5.28;2.72;;;;;;;;;;5013482;28;20510;-75
2023/06/14 01:07:25;;;;;;;6.03;2.58;;;;;;;;;;5032011;28;20071;-75
2023/06/14 01:10:03;;;;;;;3.40;2.83;;;;;;;;;;5022323;28;20054;-72
2023/06/14 01:13:10;;;;;;;5.35;2.85;;;;;;;;;;5039509;28;20055;-76
2023/06/14 01:15:37;;;;;;;3.20;2.65;;;;;;;;;;5013543;28;20140;-75
2023/06/14 01:18:04;;;;;;;3.90;2.60;;;;;;;;;;5022447;28;20041;-73
2023/06/14 01:20:32;;;;;;;4.30;2.88;;;;;;;;;;5026375;28;20160;-76
2023/06/14 01:22:58;;;;;;;6.55;2.95;;;;;;;;;;5022382;28;20045;-73
2023/06/14 01:25:25;;;;;;;6.75;2.70;;;;;;;;;;5022725;28;20046;-76
2023/06/14 01:27:53;;;;;;;4.05;2.95;;;;;;;;;;5038769;28;20091;-73
2023/06/14 01:30:21;;;;;;;5.43;3.40;;;;;;;;;;5014810;28;20042;-72
2023/06/14 01:32:47;;;;;;;3.65;2.70;;;;;;;;;;5024591;28;20073;-72
2023/06/14 01:35:13;;;;;;;7.35;3.17;;;;;;;;;;5022710;28;21052;-72
2023/06/14 01:37:41;;;;;;;5.43;2.88;;;;;;;;;;5002855;28;20532;-73
2023/06/14 01:40:10;;;;;;;8.95;2.83;;;;;;;;;;5022595;28;20041;-73
2023/06/14 01:42:37;;;;;;;3.50;2.58;;;;;;;;;;5024729;28;20107;-73
2023/06/14 01:45:05;;;;;;;3.80;2.47;;;;;;;;;;5024334;28;20049;-73
2023/06/14 01:47:32;;;;;;;3.50;2.65;;;;;;;;;;5023224;28;20973;-72
2023/06/14 01:49:58;;;;;;;3.50;3.00;;;;;;;;;;5005708;28;20049;-74
2023/06/14 01:52:24;;;;;;;5.55;2.60;;;;;;;;;;5013009;28;20045;-75
2023/06/14 01:54:50;;;;;;;4.90;2.58;;;;;;;;;;5023417;28;20056;-73
2023/06/14 01:57:16;;;;;;;4.47;2.92;;;;;;;;;;5024137;28;20403;-77
2023/06/14 01:59:41;;;;;;;4.22;2.85;;;;;;;;;;5033371;28;20045;-73
2023/06/14 02:02:08;;;;;;;3.33;2.88;;;;;;;;;;5038087;28;20083;-76
2023/06/14 02:04:34;;;;;;;5.72;2.70;;;;;;;;;;5023441;28;20049;-73
2023/06/14 02:06:59;;;;;;;4.43;2.60;;;;;;;;;;5030023;28;20077;-73
2023/06/14 02:09:25;;;;;;;4.25;2.63;;;;;;;;;;5024521;28;20053;-73
2023/06/14 02:11:53;;;;;;;4.85;2.90;;;;;;;;;;5022109;28;20073;-74
2023/06/14 02:14:21;;;;;;;4.85;2.90;;;;;;;;;;5023350;28;20077;-72
2023/06/14 02:16:48;;;;;;;7.13;2.95;;;;;;;;;;5023235;28;20052;-72
2023/06/14 02:19:18;;;;;;;4.75;3.00;;;;;;;;;;5016178;28;20045;-73
2023/06/14 02:21:44;;;;;;;7.10;3.75;;;;;;;;;;5022909;28;20084;-73
2023/06/14 02:24:12;;;;;;;6.90;3.10;;;;;;;;;;5022469;28;20219;-72
2023/06/14 02:26:37;;;;;;;10.43;3.25;;;;;;;;;;5023652;28;20553;-74
2023/06/14 02:29:05;;;;;;;8.05;3.20;;;;;;;;;;5021747;28;20049;-73
2023/06/14 02:31:32;;;;;;;6.40;3.05;;;;;;;;;;5023623;28;20045;-75
2023/06/14 02:33:58;;;;;;;6.40;3.70;;;;;;;;;;5022224;28;20079;-73
2023/06/14 02:36:24;;;;;;;6.22;2.75;;;;;;;;;;5016613;28;20119;-72
2023/06/14 02:38:49;;;;;;;3.95;2.70;;;;;;;;;;5022398;28;20115;-72
2023/06/14 02:41:15;;;;;;;7.80;2.97;;;;;;;;;;5021792;28;20057;-72
2023/06/14 02:43:40;;;;;;;3.17;2.75;;;;;;;;;;5031015;28;20045;-75
2023/06/14 02:46:06;;;;;;;3.72;2.83;;;;;;;;;;5024324;28;20060;-73
2023/06/14 02:48:32;;;;;;;4.40;3.00;;;;;;;;;;5024608;28;20140;-73
2023/06/14 02:50:57;;;;;;;4.90;2.83;;;;;;;;;;5030101;28;20164;-73
2023/06/14 02:53:23;;;;;;;4.32;2.60;;;;;;;;;;5025897;28;20087;-74
2023/06/14 02:55:48;;;;;;;3.20;2.63;;;;;;;;;;5027626;28;20072;-75
2023/06/14 02:58:14;;;;;;;5.25;3.00;;;;;;;;;;5025244;28;20156;-74
2023/06/14 03:00:40;;;;;;;4.35;2.90;;;;;;;;;;5025567;28;20409;-73
2023/06/14 03:03:13;;;;;;;3.72;2.90;;;;;;;;;;5029243;28;20037;-72
2023/06/14 03:05:47;;;;;;;5.88;3.17;;;;;;;;;;5019957;28;20038;-72
2023/06/14 03:08:16;;;;;;;4.05;2.92;;;;;;;;;;5014412;28;20053;-75
2023/06/14 03:10:43;;;;;;;5.28;4.22;;;;;;;;;;5022167;28;20049;-73
2023/06/14 03:13:10;;;;;;;6.32;3.10;;;;;;;;;;5023185;28;20041;-75
2023/06/14 03:15:36;;;;;;;4.22;3.08;;;;;;;;;;5021670;28;20445;-73
2023/06/14 03:18:03;;;;;;;5.90;3.28;;;;;;;;;;5022331;28;20136;-72
2023/06/14 03:20:29;;;;;;;6.93;3.42;;;;;;;;;;5021593;28;20048;-73
2023/06/14 03:22:55;;;;;;;15.60;3.55;;;;;;;;;;5022335;28;20445;-75
2023/06/14 03:25:21;;;;;;;6.68;3.72;;;;;;;;;;5022955;28;20045;-73
2023/06/14 03:27:49;;;;;;;8.75;3.35;;;;;;;;;;5012262;28;20057;-74
2023/06/14 03:30:15;;;;;;;3.80;3.40;;;;;;;;;;5038625;28;20037;-73
2023/06/14 03:32:43;;;;;;;6.47;3.75;;;;;;;;;;5006564;28;20038;-72
2023/06/14 03:35:09;;;;;;;5.45;3.58;;;;;;;;;;5021585;28;20409;-79
2023/06/14 03:37:35;;;;;;;6.28;3.10;;;;;;;;;;5020956;28;20403;-73
2023/06/14 03:40:01;;;;;;;6.53;3.53;;;;;;;;;;5040148;28;20049;-76
2023/06/14 03:42:26;;;;;;;8.18;3.55;;;;;;;;;;5040198;28;20130;-74
2023/06/14 03:44:53;;;;;;;9.95;3.47;;;;;;;;;;5028226;28;20049;-73
2023/06/14 03:47:20;;;;;;;6.68;3.22;;;;;;;;;;5023049;28;20141;-76
2023/06/14 03:49:46;;;;;;;6.15;3.72;;;;;;;;;;5029683;28;20136;-74
2023/06/14 03:52:13;;;;;;;4.38;3.50;;;;;;;;;;5039777;28;20491;-73
2023/06/14 03:54:43;;;;;;;4.53;3.45;;;;;;;;;;5023426;28;20040;-73
2023/06/14 03:57:10;;;;;;;7.43;3.50;;;;;;;;;;5033451;28;20457;-76
2023/06/14 03:59:36;;;;;;;6.40;3.70;;;;;;;;;;5038271;28;20547;-75
2023/06/14 04:02:02;;;;;;;5.50;3.45;;;;;;;;;;5027005;28;20051;-72
2023/06/14 04:04:28;;;;;;;4.07;3.50;;;;;;;;;;5019455;28;20048;-72
2023/06/14 04:06:58;;;;;;;4.00;3.38;;;;;;;;;;5020794;28;20421;-72
2023/06/14 04:09:24;;;;;;;3.97;3.03;;;;;;;;;;5018498;28;20045;-75
2023/06/14 04:11:53;;;;;;;4.32;3.35;;;;;;;;;;5037964;28;20057;-71
2023/06/14 04:14:21;;;;;;;6.20;3.15;;;;;;;;;;5021312;28;20041;-74
2023/06/14 04:16:48;;;;;;;5.20;3.58;;;;;;;;;;5026813;28;20041;-76
2023/06/14 04:19:15;;;;;;;6.25;3.50;;;;;;;;;;5027918;28;20049;-75
2023/06/14 04:21:41;;;;;;;5.05;3.60;;;;;;;;;;5033046;28;20102;-72
2023/06/14 04:24:12;;;;;;;8.68;3.13;;;;;;;;;;5022200;28;20046;-73
2023/06/14 04:26:40;;;;;;;6.70;3.20;;;;;;;;;;5038222;28;20041;-74
2023/06/14 04:29:06;;;;;;;5.82;3.22;;;;;;;;;;5021290;28;20084;-73
2023/06/14 04:31:40;;;;;;;6.72;3.15;;;;;;;;;;5023011;28;20090;-72
2023/06/14 04:34:08;;;;;;;3.88;2.78;;;;;;;;;;5021587;28;20060;-72
2023/06/14 04:36:36;;;;;;;4.25;3.65;;;;;;;;;;5037081;28;20052;-76
2023/06/14 04:39:03;;;;;;;3.72;3.13;;;;;;;;;;5019911;28;20041;-71
2023/06/14 04:41:31;;;;;;;5.03;3.35;;;;;;;;;;5022417;28;20589;-74
2023/06/14 04:44:01;;;;;;;6.82;3.38;;;;;;;;;;5003351;28;20124;-76
2023/06/14 04:46:28;;;;;;;4.32;3.30;;;;;;;;;;5019589;28;20045;-78
2023/06/14 04:48:54;;;;;;;5.47;3.90;;;;;;;;;;5021795;28;20049;-72
2023/06/14 04:51:22;;;;;;;9.48;3.63;;;;;;;;;;5020933;28;20040;-75
2023/06/14 04:53:49;;;;;;;5.35;3.65;;;;;;;;;;5020811;28;20041;-72
2023/06/14 04:56:15;;;;;;;5.00;3.47;;;;;;;;;;5021038;28;20168;-72
2023/06/14 04:58:40;;;;;;;6.68;3.50;;;;;;;;;;5018921;28;20469;-72
2023/06/14 05:01:09;;;;;;;7.40;3.80;;;;;;;;;;5002972;28;20030;-74
2023/06/14 05:03:34;;;;;;;5.75;3.60;;;;;;;;;;5036400;28;20510;-73
2023/06/14 05:06:00;;;;;;;6.43;3.50;;;;;;;;;;5018762;28;20053;-74
2023/06/14 05:08:26;;;;;;;8.70;3.72;;;;;;;;;;5019404;28;20136;-70
2023/06/14 05:10:52;;;;;;;6.47;3.50;;;;;;;;;;5019393;28;20119;-70
2023/06/14 05:13:18;;;;;;;3.47;3.17;;;;;;;;;;5004176;28;20559;-71
2023/06/14 05:15:45;;;;;;;5.85;3.30;;;;;;;;;;5019305;28;20060;-72
2023/06/14 05:18:13;;;;;;;6.20;3.42;;;;;;;;;;5020532;28;20526;-72
2023/06/14 05:20:38;;;;;;;4.28;3.28;;;;;;;;;;5020988;28;20038;-72
2023/06/14 05:23:04;;;;;;;10.00;3.67;;;;;;;;;;5021333;28;20056;-74
2023/06/14 05:25:29;;;;;;;5.65;3.35;;;;;;;;;;5022141;28;20437;-72
2023/06/14 05:27:55;;;;;;;3.55;3.13;;;;;;;;;;5020377;28;20061;-71
2023/06/14 05:30:20;;;;;;;3.60;3.00;;;;;;;;;;5020432;28;20055;-76
2023/06/14 05:32:46;;;;;;;6.93;3.97;;;;;;;;;;5021457;28;20059;-71
2023/06/14 05:35:11;;;;;;;8.00;3.60;;;;;;;;;;5020525;28;20053;-74
2023/06/14 05:37:37;;;;;;;5.47;3.15;;;;;;;;;;5021184;28;20052;-74
2023/06/14 05:40:05;;;;;;;10.90;3.88;;;;;;;;;;5019928;28;20096;-73
2023/06/14 05:42:31;;;;;;;6.63;3.35;;;;;;;;;;5021278;28;20045;-73
2023/06/14 05:44:57;;;;;;;5.38;3.28;;;;;;;;;;5021329;28;20045;-77
2023/06/14 05:47:22;;;;;;;5.35;3.13;;;;;;;;;;5021922;28;20124;-77
2023/06/14 05:49:48;;;;;;;5.55;3.55;;;;;;;;;;5020962;28;20045;-74
2023/06/14 05:52:13;;;;;;;4.40;3.28;;;;;;;;;;5020080;28;20057;-76
2023/06/14 05:54:39;;;;;;;11.00;3.38;;;;;;;;;;5015660;28;20110;-74
2023/06/14 05:57:06;;;;;;;18.35;4.25;;;;;;;;;;5035852;28;20054;-74
2023/06/14 05:59:31;;;;;;;8.38;3.13;;;;;;;;;;5021990;28;20049;-77
2023/06/14 06:01:57;;;;;;;3.97;3.10;;;;;;;;;;5019980;28;20060;-80
2023/06/14 06:04:23;;;;;;;8.57;3.08;;;;;;;;;;5021334;28;20064;-73
2023/06/14 06:06:48;;;;;;;3.97;3.15;;;;;;;;;;5021447;28;20057;-74
2023/06/14 06:09:14;;;;;;;4.30;3.10;;;;;;;;;;5021409;28;20072;-75
2023/06/14 06:11:40;;;;;;;8.27;3.28;;;;;;;;;;5020643;28;20050;-73
2023/06/14 06:14:06;;;;;;;6.05;3.20;;;;;;;;;;5022619;28;20136;-75
2023/06/14 06:16:31;;;;;;;4.40;2.97;;;;;;;;;;5022803;28;20101;-74
2023/06/14 06:18:57;;;;;;;5.47;3.35;;;;;;;;;;5022103;28;20045;-76
2023/06/14 06:21:22;;;;;;;4.20;2.90;;;;;;;;;;5022004;28;20092;-72
2023/06/14 06:23:47;;;;;;;4.88;2.83;;;;;;;;;;5020805;28;20076;-73
2023/06/14 06:26:13;;;;;;;3.42;2.90;;;;;;;;;;5035609;28;20060;-73
2023/06/14 06:28:38;;;;;;;5.93;3.72;;;;;;;;;;5019936;28;20042;-77
2023/06/14 06:31:05;;;;;;;3.67;2.97;;;;;;;;;;5020736;28;20572;-72
2023/06/14 06:33:30;;;;;;;5.75;3.00;;;;;;;;;;5002729;28;20340;-72
2023/06/14 06:35:56;;;;;;;8.77;2.88;;;;;;;;;;5020438;28;21106;-76
2023/06/14 06:38:21;;;;;;;3.72;2.45;;;;;;;;;;5019474;28;20048;-72
2023/06/14 06:40:47;;;;;;;8.50;3.33;;;;;;;;;;5020686;28;20426;-73
2023/06/14 06:43:16;;;;;;;2.90;2.60;;;;;;;;;;5020437;28;20107;-70
2023/06/14 06:45:45;;;;;;;3.55;2.67;;;;;;;;;;5018416;28;20045;-71
2023/06/14 06:48:11;;;;;;;3.20;2.70;;;;;;;;;;5019463;28;20821;-74
2023/06/14 06:50:37;;;;;;;4.35;2.90;;;;;;;;;;5020281;28;20114;-73
2023/06/14 06:53:02;;;;;;;4.65;2.63;;;;;;;;;;5019150;28;20045;-74
2023/06/14 06:55:28;;;;;;;5.65;3.08;;;;;;;;;;5020830;28;20033;-74
2023/06/14 06:57:53;;;;;;;3.88;3.40;;;;;;;;;;5020097;28;20383;-72
2023/06/14 07:00:20;;;;;;;11.00;3.05;;;;;;;;;;5019623;28;20050;-73
2023/06/14 07:02:45;;;;;;;7.57;3.08;;;;;;;;;;5020405;28;20038;-75
2023/06/14 07:05:11;;;;;;;6.53;3.42;;;;;;;;;;5020343;28;20068;-77
2023/06/14 07:07:36;;;;;;;6.18;3.03;;;;;;;;;;5019576;28;20037;-74
2023/06/14 07:10:04;;;;;;;4.85;2.50;;;;;;;;;;5019853;28;20439;-80
2023/06/14 07:12:33;;;;;;;11.70;3.20;;;;;;;;;;5021532;28;20422;-74
2023/06/14 07:14:59;;;;;;;3.67;2.95;;;;;;;;;;5021641;28;20041;-72
2023/06/14 07:17:25;;;;;;;6.00;3.47;;;;;;;;;;5019834;28;20132;-73
2023/06/14 07:19:51;;;;;;;3.35;3.05;;;;;;;;;;5020041;28;20132;-72
2023/06/14 07:22:17;;;;;;;4.63;3.17;;;;;;;;;;5017978;28;21791;-73
2023/06/14 07:24:43;;;;;;;5.75;3.22;;;;;;;;;;5020296;28;20107;-77
2023/06/14 07:27:08;;;;;;;5.82;3.28;;;;;;;;;;5018362;28;20065;-75
2023/06/14 07:29:34;;;;;;;3.65;3.20;;;;;;;;;;5019404;28;20525;-74
2023/06/14 07:31:59;;;;;;;5.28;2.78;;;;;;;;;;5017788;28;20049;-74
2023/06/14 07:34:26;;;;;;;4.55;2.90;;;;;;;;;;5019570;28;20924;-72
2023/06/14 07:36:51;;;;;;;9.68;3.17;;;;;;;;;;5019793;28;20099;-72
2023/06/14 07:39:17;;;;;;;10.15;3.40;;;;;;;;;;5019851;28;20041;-72
2023/06/14 07:41:42;;;;;;;5.40;2.80;;;;;;;;;;5022801;28;20732;-72
2023/06/14 07:44:07;;;;;;;5.07;2.80;;;;;;;;;;5022927;28;20502;-71
2023/06/14 07:46:34;;;;;;;4.45;2.83;;;;;;;;;;5021584;28;20045;-70
2023/06/14 07:49:00;;;;;;;6.85;2.63;;;;;;;;;;5022565;28;20045;-73
2023/06/14 07:51:25;;;;;;;6.13;2.63;;;;;;;;;;5023785;28;20444;-73
2023/06/14 07:53:51;;;;;;;4.32;2.55;;;;;;;;;;5022540;28;20502;-73
2023/06/14 07:56:16;;;;;;;4.20;2.80;;;;;;;;;;5023328;28;21055;-70
2023/06/14 07:58:41;;;;;;;9.77;2.90;;;;;;;;;;5023354;28;20037;-70
2023/06/14 08:01:07;;;;;;;6.65;3.20;;;;;;;;;;5023226;28;20150;-71
2023/06/14 08:03:34;;;;;;;9.90;2.80;;;;;;;;;;5023426;28;20597;-73
2023/06/14 08:06:00;;;;;;;5.82;2.85;;;;;;;;;;5022143;28;20058;-75
2023/06/14 08:08:26;;;;;;;7.05;3.60;;;;;;;;;;5023420;28;20048;-71
2023/06/14 08:10:52;;;;;;;5.40;2.65;;;;;;;;;;5023073;28;20042;-73
2023/06/14 08:13:17;;;;;;;5.03;3.25;;;;;;;;;;5038580;28;20042;-72
2023/06/14 08:15:43;;;;;;;4.90;2.30;;;;;;;;;;5020662;28;20045;-72
2023/06/14 08:18:10;;;;;;;4.20;2.30;;;;;;;;;;5021448;28;20163;-72
2023/06/14 08:20:36;;;;;;;2.50;2.30;;;;;;;;;;5022157;28;20508;-72
2023/06/14 08:23:03;;;;;;;4.60;2.50;;;;;;;;;;5021797;28;20053;-75
2023/06/14 08:25:30;;;;;;;4.90;2.45;;;;;;;;;;5023760;28;20406;-74
2023/06/14 08:27:55;;;;;;;5.78;2.72;;;;;;;;;;5020941;28;20080;-73
2023/06/14 08:30:22;;;;;;;7.00;2.75;;;;;;;;;;5022039;28;20057;-74
2023/06/14 08:32:47;;;;;;;3.65;2.70;;;;;;;;;;5020882;28;20053;-74
2023/06/14 08:35:13;;;;;;;2.60;2.40;;;;;;;;;;5022973;28;20049;-73
2023/06/14 08:37:40;;;;;;;5.80;2.60;;;;;;;;;;5021546;28;20087;-73
2023/06/14 08:40:18;;;;;;;5.30;2.63;;;;;;;;;;5019691;28;20132;-73
2023/06/14 08:42:45;;;;;;;4.53;2.70;;;;;;;;;;5022305;28;20076;-75
2023/06/14 08:45:10;;;;;;;4.63;2.65;;;;;;;;;;5021943;28;20115;-73
2023/06/14 08:47:36;;;;;;;3.60;2.58;;;;;;;;;;5022041;28;20441;-73
2023/06/14 08:50:03;;;;;;;7.55;3.20;;;;;;;;;;5020555;28;20594;-73
2023/06/14 08:52:34;;;;;;;5.35;3.08;;;;;;;;;;5021770;28;20493;-72
2023/06/14 08:55:02;;;;;;;2.78;2.58;;;;;;;;;;5021910;28;20140;-74
2023/06/14 08:57:30;;;;;;;3.00;2.10;;;;;;;;;;5022058;28;20570;-73
2023/06/14 08:59:56;;;;;;;5.47;2.40;;;;;;;;;;5020901;28;20053;-72
2023/06/14 09:02:22;;;;;;;4.35;2.50;;;;;;;;;;5029122;28;20132;-73
2023/06/14 09:04:49;;;;;;;5.47;2.40;;;;;;;;;;5020865;28;20059;-73
2023/06/14 09:07:14;;;;;;;2.50;2.15;;;;;;;;;;5021536;28;20140;-73
2023/06/14 09:09:41;;;;;;;6.03;2.50;;;;;;;;;;5021745;28;20061;-72
2023/06/14 09:12:16;;;;;;;3.00;2.40;;;;;;;;;;5020884;28;20045;-72
2023/06/14 09:14:42;;;;;;;3.58;2.42;;;;;;;;;;5021729;28;20041;-74
2023/06/14 09:17:07;;;;;;;5.65;2.33;;;;;;;;;;5021792;28;20116;-73
2023/06/14 09:19:35;;;;;;;3.40;2.75;;;;;;;;;;5021783;28;20447;-73
2023/06/14 09:22:00;;;;;;;3.72;2.45;;;;;;;;;;5020306;28;20053;-72
2023/06/14 09:24:26;;;;;;;4.47;2.40;;;;;;;;;;5020822;28;20054;-74
2023/06/14 09:26:51;;;;;;;3.20;2.15;;;;;;;;;;5021605;28;20057;-73
2023/06/14 09:29:17;;;;;;;3.75;2.25;;;;;;;;;;5020996;28;20134;-75
2023/06/14 09:31:45;;;;;;;4.50;2.17;;;;;;;;;;5021132;28;20049;-74
2023/06/14 09:34:11;;;;;;;2.90;2.00;;;;;;;;;;5022459;28;20055;-74
2023/06/14 09:36:39;;;;;;;3.00;2.20;;;;;;;;;;5022448;28;20041;-73
2023/06/14 09:39:06;;;;;;;3.03;2.47;;;;;;;;;;5023327;28;20445;-75
2023/06/14 09:41:39;;;;;;;5.13;2.30;;;;;;;;;;5021125;28;20044;-74
2023/06/14 09:44:07;;;;;;;5.38;2.20;;;;;;;;;;5019499;28;20087;-75
2023/06/14 09:46:35;;;;;;;2.55;2.00;;;;;;;;;;5027169;28;20118;-74
2023/06/14 09:49:01;;;;;;;4.80;2.38;;;;;;;;;;5021453;28;20049;-74
2023/06/14 09:51:30;;;;;;;5.10;2.20;;;;;;;;;;5021369;28;20167;-75
2023/06/14 09:54:00;;;;;;;2.88;2.35;;;;;;;;;;5019651;28;21091;-76
2023/06/14 09:56:29;;;;;;;6.13;2.90;;;;;;;;;;5020767;28;20112;-76
2023/06/14 09:58:57;;;;;;;3.60;2.10;;;;;;;;;;5021371;28;20287;-75
2023/06/14 10:01:28;;;;;;;4.00;2.60;;;;;;;;;;5020803;28;20108;-73
2023/06/14 10:03:57;;;;;;;6.95;2.60;;;;;;;;;;5020045;28;20072;-75
2023/06/14 10:06:24;;;;;;;3.40;2.30;;;;;;;;;;5020532;28;20802;-74
2023/06/14 10:08:53;;;;;;;5.32;2.30;;;;;;;;;;5021144;28;20148;-73
2023/06/14 10:11:18;;;;;;;4.07;2.60;;;;;;;;;;5020901;28;20123;-77
2023/06/14 10:13:44;;;;;;;4.32;2.38;;;;;;;;;;5020879;28;20099;-75
2023/06/14 10:16:46;;;;;;;5.65;2.60;;;;;;;;;;5021325;28;20091;-75
2023/06/14 10:19:34;;;;;;;3.72;2.30;;;;;;;;;;5019927;28;20140;-76
2023/06/14 10:22:24;;;;;;;4.50;2.30;;;;;;;;;;5020013;28;20057;-77
2023/06/14 10:24:51;;;;;;;2.55;2.20;;;;;;;;;;5021128;28;20053;-76
2023/06/14 10:27:23;;;;;;;6.05;2.30;;;;;;;;;;5007800;28;20053;-74
2023/06/14 10:29:58;;;;;;;3.38;2.15;;;;;;;;;;5016840;28;20631;-75
2023/06/14 10:32:30;;;;;;;4.32;2.50;;;;;;;;;;5017485;28;20402;-74
2023/06/14 10:35:05;;;;;;;6.30;2.67;;;;;;;;;;5019207;28;20059;-74
2023/06/14 10:37:31;;;;;;;5.32;2.45;;;;;;;;;;5018272;28;20056;-74
2023/06/14 10:39:56;;;;;;;4.22;2.40;;;;;;;;;;5016239;28;20054;-74
2023/06/14 10:42:28;;;;;;;4.13;2.40;;;;;;;;;;5018227;28;20524;-74
2023/06/14 10:44:55;;;;;;;4.28;2.20;;;;;;;;;;5017735;28;20049;-75
2023/06/14 10:47:37;;;;;;;4.65;2.40;;;;;;;;;;5017457;28;20123;-76
2023/06/14 10:50:10;;;;;;;5.10;2.15;;;;;;;;;;4998488;28;20088;-74
2023/06/14 10:52:43;;;;;;;5.47;2.60;;;;;;;;;;5007828;28;20041;-74
2023/06/14 10:55:17;;;;;;;2.95;2.35;;;;;;;;;;5002431;28;20498;-74
2023/06/14 10:57:46;;;;;;;8.50;2.55;;;;;;;;;;5018047;28;21033;-75
2023/06/14 11:00:16;;;;;;;4.35;2.42;;;;;;;;;;5019062;28;20102;-75
2023/06/14 11:02:56;;;;;;;5.75;2.50;;;;;;;;;;5015633;28;20837;-76
2023/06/14 11:05:26;;;;;;;2.67;2.35;;;;;;;;;;5018726;28;20466;-75
2023/06/14 11:07:58;;;;;;;5.22;2.20;;;;;;;;;;5017758;28;20049;-78
2023/06/14 11:10:26;;;;;;;3.83;2.88;;;;;;;;;;5019604;28;20091;-76
2023/06/14 11:12:54;;;;;;;3.40;2.53;;;;;;;;;;5017653;28;20467;-76
2023/06/14 11:15:20;;;;;;;4.72;2.33;;;;;;;;;;5018168;28;20060;-76
2023/06/14 11:17:56;;;;;;;3.50;2.55;;;;;;;;;;5019309;28;20041;-76
2023/06/14 11:20:25;;;;;;;8.25;2.38;;;;;;;;;;5019592;28;20100;-78
2023/06/14 11:22:52;;;;;;;2.72;2.25;;;;;;;;;;5017476;28;20621;-78
2023/06/14 11:25:17;;;;;;;5.03;2.40;;;;;;;;;;5020200;28;20045;-75
2023/06/14 11:27:43;;;;;;;3.03;2.45;;;;;;;;;;5018735;28;20809;-78
2023/06/14 11:30:09;;;;;;;4.85;2.40;;;;;;;;;;5035183;28;20111;-77
2023/06/14 11:32:36;;;;;;;5.68;2.45;;;;;;;;;;5016238;28;20045;-73
2023/06/14 11:35:03;;;;;;;9.13;2.50;;;;;;;;;;5017799;28;20042;-75
2023/06/14 11:37:33;;;;;;;5.95;2.40;;;;;;;;;;5019761;28;20041;-75
2023/06/14 11:39:59;;;;;;;5.30;2.70;;;;;;;;;;5034085;28;20049;-74
2023/06/14 11:42:27;;;;;;;3.97;2.72;;;;;;;;;;5019398;28;20057;-73
2023/06/14 11:44:54;;;;;;;4.85;2.47;;;;;;;;;;5017771;28;20037;-78
2023/06/14 11:47:19;;;;;;;8.50;2.75;;;;;;;;;;5018732;28;20049;-73
2023/06/14 11:49:46;;;;;;;5.57;2.42;;;;;;;;;;5018952;28;20041;-73
2023/06/14 11:52:11;;;;;;;3.03;2.45;;;;;;;;;;5020857;28;20045;-75
2023/06/14 11:54:37;;;;;;;6.43;2.75;;;;;;;;;;5020579;28;20053;-72
2023/06/14 11:57:04;;;;;;;3.08;2.38;;;;;;;;;;5018561;28;20050;-75
2023/06/14 11:59:31;;;;;;;4.07;2.20;;;;;;;;;;5017786;28;20045;-73
2023/06/14 12:01:57;;;;;;;5.07;2.60;;;;;;;;;;5010310;28;20052;-75
2023/06/14 12:04:29;;;;;;;5.18;3.08;;;;;;;;;;5018700;28;20128;-73
2023/06/14 12:06:57;;;;;;;7.95;2.58;;;;;;;;;;5016558;28;20046;-74
2023/06/14 12:09:25;;;;;;;8.02;2.75;;;;;;;;;;5015836;28;20052;-74
2023/06/14 12:11:59;;;;;;;5.40;2.70;;;;;;;;;;5017640;28;20064;-76
2023/06/14 12:14:31;;;;;;;4.85;2.30;;;;;;;;;;5018761;28;20081;-75
2023/06/14 12:17:07;;;;;;;3.40;2.30;;;;;;;;;;5018941;28;20079;-77
2023/06/14 12:19:41;;;;;;;7.07;2.30;;;;;;;;;;5018392;28;20073;-74
2023/06/14 12:22:08;;;;;;;4.75;2.50;;;;;;;;;;5017859;28;20550;-74
2023/06/14 12:24:34;;;;;;;2.53;2.33;;;;;;;;;;5019527;28;20064;-76
2023/06/14 12:27:00;;;;;;;4.57;2.63;;;;;;;;;;5018894;28;20490;-76
2023/06/14 12:29:25;;;;;;;2.25;2.05;;;;;;;;;;5021762;28;20045;-76
2023/06/14 12:31:53;;;;;;;3.50;2.30;;;;;;;;;;5020153;28;20052;-76
2023/06/14 12:34:19;;;;;;;2.80;2.50;;;;;;;;;;5022011;28;20727;-75
2023/06/14 12:36:46;;;;;;;5.32;2.67;;;;;;;;;;5022593;28;20037;-76
2023/06/14 12:39:11;;;;;;;3.65;2.47;;;;;;;;;;5019924;28;20144;-75
2023/06/14 12:41:37;;;;;;;3.72;2.30;;;;;;;;;;5023787;28;20156;-75
2023/06/14 12:44:04;;;;;;;2.40;2.20;;;;;;;;;;5020148;28;20553;-73
2023/06/14 12:46:32;;;;;;;7.38;2.60;;;;;;;;;;5023260;28;20969;-76
2023/06/14 12:48:58;;;;;;;2.40;2.20;;;;;;;;;;5022089;28;20393;-77
2023/06/14 12:51:25;;;;;;;5.93;2.35;;;;;;;;;;5021119;28;20786;-76
2023/06/14 12:53:50;;;;;;;2.92;2.20;;;;;;;;;;5022165;28;20106;-78
2023/06/14 12:56:16;;;;;;;3.42;2.58;;;;;;;;;;5021086;28;20053;-76
2023/06/14 12:58:42;;;;;;;5.00;2.45;;;;;;;;;;5021886;28;20076;-76
2023/06/14 13:01:08;;;;;;;9.15;2.63;;;;;;;;;;5021068;28;20045;-76
2023/06/14 13:03:34;;;;;;;6.65;2.17;;;;;;;;;;5021874;28;20055;-76
2023/06/14 13:06:00;;;;;;;3.35;2.10;;;;;;;;;;5030236;28;20081;-76
2023/06/14 13:08:26;;;;;;;8.18;2.55;;;;;;;;;;5034949;28;20045;-77
2023/06/14 13:10:51;;;;;;;7.15;2.33;;;;;;;;;;5021936;28;20682;-77
2023/06/14 13:13:16;;;;;;;6.68;2.70;;;;;;;;;;5021799;28;20088;-75
2023/06/14 13:15:43;;;;;;;4.57;2.38;;;;;;;;;;5021207;28;20167;-77
2023/06/14 13:18:09;;;;;;;3.25;2.35;;;;;;;;;;5022177;28;20053;-76
2023/06/14 13:20:34;;;;;;;2.92;2.60;;;;;;;;;;5020319;28;20056;-75
2023/06/14 13:23:00;;;;;;;3.78;2.40;;;;;;;;;;5022376;28;20111;-75
2023/06/14 13:25:25;;;;;;;4.15;2.25;;;;;;;;;;5021217;28;20073;-76
2023/06/14 13:27:50;;;;;;;3.50;2.58;;;;;;;;;;5021088;28;20058;-77
2023/06/14 13:30:16;;;;;;;9.07;2.67;;;;;;;;;;5021135;28;20053;-74
2023/06/14 13:32:42;;;;;;;2.40;2.20;;;;;;;;;;5022114;28;20119;-74
2023/06/14 13:35:08;;;;;;;3.90;2.72;;;;;;;;;;5019685;28;20117;-76
2023/06/14 13:37:33;;;;;;;4.05;2.70;;;;;;;;;;5023875;28;20132;-76
2023/06/14 13:39:59;;;;;;;5.55;2.35;;;;;;;;;;5020254;28;20144;-74
2023/06/14 13:42:25;;;;;;;6.32;2.38;;;;;;;;;;5021701;28;20041;-75
2023/06/14 13:44:51;;;;;;;5.15;2.50;;;;;;;;;;5020072;28;20053;-77
2023/06/14 13:47:17;;;;;;;2.53;2.33;;;;;;;;;;5019912;28;20454;-74
2023/06/14 13:49:42;;;;;;;8.15;2.53;;;;;;;;;;5020958;28;20033;-77
2023/06/14 13:52:07;;;;;;;3.08;2.42;;;;;;;;;;5021095;28;20045;-74
2023/06/14 13:54:33;;;;;;;6.55;2.63;;;;;;;;;;5020433;28;21123;-75
2023/06/14 13:56:59;;;;;;;3.75;2.50;;;;;;;;;;5020759;28;20056;-76
2023/06/14 13:59:24;;;;;;;4.05;2.55;;;;;;;;;;5020916;28;20129;-75
2023/06/14 14:01:50;;;;;;;5.15;2.30;;;;;;;;;;5019867;28;20961;-77
2023/06/14 14:04:15;;;;;;;4.38;2.60;;;;;;;;;;5021336;28;20085;-76
2023/06/14 14:06:40;;;;;;;4.38;2.72;;;;;;;;;;5021232;28;20069;-76
2023/06/14 14:09:07;;;;;;;2.85;2.50;;;;;;;;;;5019898;28;20422;-74
2023/06/14 14:11:33;;;;;;;2.90;2.00;;;;;;;;;;5021139;28;20076;-74
2023/06/14 14:13:59;;;;;;;2.70;2.38;;;;;;;;;;5020542;28;20474;-74
2023/06/14 14:16:24;;;;;;;4.20;2.80;;;;;;;;;;5021151;28;20048;-75
2023/06/14 14:18:50;;;;;;;3.33;2.30;;;;;;;;;;5019642;28;20050;-76
2023/06/14 14:21:15;;;;;;;3.90;2.50;;;;;;;;;;5021374;28;20108;-74
2023/06/14 14:23:40;;;;;;;5.07;2.55;;;;;;;;;;5020827;28;20229;-73
2023/06/14 14:26:06;;;;;;;8.70;2.40;;;;;;;;;;5020197;28;20053;-76
2023/06/14 14:28:33;;;;;;;4.78;2.40;;;;;;;;;;5020260;28;20045;-76
2023/06/14 14:30:59;;;;;;;3.47;2.40;;;;;;;;;;5018385;28;20108;-76
2023/06/14 14:33:24;;;;;;;3.03;2.47;;;;;;;;;;5020343;28;20107;-76
2023/06/14 14:35:50;;;;;;;5.35;2.60;;;;;;;;;;5020659;28;20049;-74
2023/06/14 14:38:16;;;;;;;5.78;2.65;;;;;;;;;;5020523;28;20057;-74
2023/06/14 14:40:42;;;;;;;4.20;2.55;;;;;;;;;;5020093;28;20132;-76
2023/06/14 14:43:08;;;;;;;3.28;2.35;;;;;;;;;;5020625;28;20053;-74